Wyndham Hills, Pennsylvania
Current Conditions -  °F | °C
As of 3:09 PM on Monday 26 Jan 2015 (Local Time) from KTHV Reporting Station
Light Snow Light Snow  
Wind Chill: 15°   Ceiling: 1400
Heat Index: 24°   Visibility: 3mi
Dew Point: 20°   Wind: 8mph
Humidity: 84%   Direction: 10°N
Pressure: 29.76"   Gusts: NA
Location:  39.9503°N, 76.7105°W
Report Text: KTHV 262009Z AUTO 01007KT 3SM -SN BR OVC014 M04/M07 A2976 RMK AO2 P0000 T10441067
Loading
Personal Weather Stations






























Interactive Weather Map New forecast layout! Learn more

10-Day Weather Forecast

Advertisements
Track Severe Weather on mobile